Williams, AZ

7:31 PM MST on April 28, 2017 (GMT -0700)
Williams

Weather History for KCMR - June, 2013

Change the Weather History Date:

Wednesday, June 19, 2013

  Actual Average (K40G) Record (K40G)
Temperature  
Mean Temperature 66 °F -  
Max Temperature 80 °F 76 °F 89 °F (1997)
Min Temperature 53 °F 70 °F 69 °F (2002)
Cooling Degree Days 2    
Growing Degree Days 16 (Base 50)    
Moisture  
Dew Point 15 °F    
Average Humidity 13    
Maximum Humidity 24    
Minimum Humidity 7    
Precipitation  
Precipitation 0.00 in - - ()
Sea Level Pressure  
Sea Level Pressure 30.11 in    
Wind  
Wind Speed 13 mph (South)    
Max Wind Speed 26 mph    
Max Gust Speed 36 mph    
Visibility 10 miles    
Events      
Averages and records for this station are not official NWS values.
T = Trace of Precipitation, MM = Missing Value Source: NWS Daily Summary

Daily Weather History Graph

Daily Weather History Graph

Search for Another Location

Airport or City:

Trip Planner

Search our weather history database for the weather conditions in past years. The results will help you decide how hot, cold, wet, or windy it might be!

Date:

Astronomy

Jun. 19, 2013 Rise Set
Actual Time 5:13 AM MST 7:46 PM MST
Civil Twilight 4:44 AM MST 8:16 PM MST
Nautical Twilight 4:07 AM MST 8:53 PM MST
Astronomical Twilight 3:26 AM MST 9:34 PM MST
Moon 3:49 PM MST (6/19) 1:54 AM MST (6/19)
Length of Visible Light 15h 32m
Length of Day
14h 32m
Waxing Gibbous, 81% of the Moon is Illuminated
Jun 19
Waxing Gibbous
Jun 23
Full
Jun 29
Last Quarter
Jul 8
New
Jul 15
First Quarter

Hourly Weather History & Observations

Time (MST) Temp. Dew Point Humidity Pressure Visibility Wind Dir Wind Speed Gust Speed Precip Events Conditions
12:15 AM 59.0 °F 6.8 °F 13% 30.14 in 10.0 mi SSE 6.9 mph - N/A   Clear
12:35 AM 57.2 °F 8.6 °F 14% 30.13 in 10.0 mi SSE 6.9 mph - N/A   Clear
12:55 AM 57.2 °F 6.8 °F 13% 30.13 in 10.0 mi SSE 8.1 mph - N/A   Clear
1:15 AM 57.2 °F 8.6 °F 14% 30.12 in 10.0 mi SSE 4.6 mph - N/A   Clear
1:35 AM 57.2 °F 8.6 °F 14% 30.11 in 10.0 mi SE 4.6 mph - N/A   Clear
1:55 AM 62.6 °F 14.0 °F 15% 30.10 in 10.0 mi South 12.7 mph 19.6 mph N/A   Clear
2:15 AM 64.4 °F 14.0 °F 14% 30.09 in 10.0 mi South 16.1 mph 23.0 mph N/A   Clear
2:35 AM 64.4 °F 15.8 °F 15% 30.07 in 10.0 mi South 20.7 mph 27.6 mph N/A   Clear
2:55 AM 64.4 °F 15.8 °F 15% 30.08 in 10.0 mi South 13.8 mph 24.2 mph N/A   Clear
3:15 AM 64.4 °F 15.8 °F 15% 30.07 in 10.0 mi South 19.6 mph 28.8 mph N/A   Clear
3:35 AM 64.4 °F 17.6 °F 16% 30.08 in 10.0 mi South 16.1 mph 26.5 mph N/A   Clear
3:55 AM 64.4 °F 17.6 °F 16% 30.08 in 10.0 mi South 15.0 mph 21.9 mph N/A   Clear
4:15 AM 62.6 °F 17.6 °F 18% 30.09 in 10.0 mi South 12.7 mph 20.7 mph N/A   Clear
4:35 AM 62.6 °F 19.4 °F 19% 30.09 in 10.0 mi South 11.5 mph 18.4 mph N/A   Clear
4:55 AM 62.6 °F 19.4 °F 19% 30.09 in 10.0 mi South 12.7 mph 19.6 mph N/A   Clear
5:35 AM 62.6 °F 19.4 °F 19% 30.09 in 10.0 mi South 11.5 mph 19.6 mph N/A   Clear
5:55 AM 62.6 °F 19.4 °F 19% 30.10 in 10.0 mi South 11.5 mph - N/A   Clear
6:15 AM 62.6 °F 21.2 °F 20% 30.10 in 10.0 mi South 11.5 mph 17.3 mph N/A   Clear
6:35 AM 64.4 °F 21.2 °F 19% 30.10 in 10.0 mi South 12.7 mph 19.6 mph N/A   Clear
6:55 AM 64.4 °F 23.0 °F 21% 30.10 in 10.0 mi South 16.1 mph 20.7 mph N/A   Clear
7:15 AM 66.2 °F 21.2 °F 18% 30.11 in 10.0 mi South 16.1 mph 21.9 mph N/A   Clear
7:35 AM 66.2 °F 21.2 °F 18% 30.11 in 10.0 mi South 16.1 mph 23.0 mph N/A   Clear
7:55 AM 68.0 °F 21.2 °F 17% 30.11 in 10.0 mi South 17.3 mph 24.2 mph N/A   Clear
8:15 AM 68.0 °F 21.2 °F 17% 30.12 in 10.0 mi South 15.0 mph 20.7 mph N/A   Clear
8:35 AM 69.8 °F 17.6 °F 14% 30.12 in 10.0 mi South 16.1 mph 25.3 mph N/A   Clear
8:55 AM 71.6 °F 19.4 °F 14% 30.12 in 10.0 mi South 17.3 mph 26.5 mph N/A   Clear
9:15 AM 71.6 °F 15.8 °F 12% 30.12 in 10.0 mi South 18.4 mph 29.9 mph N/A   Clear
9:35 AM 71.6 °F 12.2 °F 10% 30.11 in 10.0 mi SSW 16.1 mph 28.8 mph N/A   Clear
9:55 AM 73.4 °F 14.0 °F 10% 30.11 in 10.0 mi South 20.7 mph 33.4 mph N/A   Clear
10:15 AM 73.4 °F 10.4 °F 9% 30.12 in 10.0 mi South 20.7 mph 27.6 mph N/A   Clear
10:35 AM 75.2 °F 10.4 °F 8% 30.12 in 10.0 mi South 23.0 mph 31.1 mph N/A   Clear
10:55 AM 75.2 °F 8.6 °F 8% 30.12 in 10.0 mi SSW 20.7 mph 32.2 mph N/A   Clear
11:15 AM 77.0 °F 8.6 °F 7% 30.12 in 10.0 mi SSW 21.9 mph 33.4 mph N/A   Clear
11:35 AM 77.0 °F 12.2 °F 9% 30.12 in 10.0 mi SW 24.2 mph 31.1 mph N/A   Clear
11:55 AM 77.0 °F 14.0 °F 9% 30.12 in 10.0 mi South 16.1 mph 32.2 mph N/A   Clear
12:15 PM 77.0 °F 14.0 °F 9% 30.11 in 10.0 mi SW 24.2 mph 32.2 mph N/A   Clear
12:35 PM 77.0 °F 14.0 °F 9% 30.12 in 10.0 mi SSW 19.6 mph 33.4 mph N/A   Clear
12:55 PM 78.8 °F 12.2 °F 8% 30.12 in 10.0 mi South 19.6 mph 29.9 mph N/A   Clear
1:15 PM 78.8 °F 14.0 °F 9% 30.12 in 10.0 mi SSW 20.7 mph 28.8 mph N/A   Clear
1:35 PM 78.8 °F 12.2 °F 8% 30.11 in 10.0 mi South 13.8 mph 33.4 mph N/A   Clear
1:55 PM 78.8 °F 12.2 °F 8% 30.11 in 10.0 mi SSW 13.8 mph 32.2 mph N/A   Clear
2:15 PM 78.8 °F 14.0 °F 9% 30.11 in 10.0 mi SSW 17.3 mph 35.7 mph N/A   Clear
2:35 PM 80.6 °F 14.0 °F 8% 30.11 in 10.0 mi SSW 23.0 mph 31.1 mph N/A   Clear
2:55 PM 80.6 °F 14.0 °F 8% 30.11 in 10.0 mi SSW 26.5 mph 34.5 mph N/A   Clear
3:15 PM 80.6 °F 12.2 °F 8% 30.10 in 10.0 mi SW 18.4 mph 28.8 mph N/A   Clear
3:35 PM 78.8 °F 14.0 °F 9% 30.11 in 10.0 mi South 18.4 mph 31.1 mph N/A   Clear
3:55 PM 78.8 °F 14.0 °F 9% 30.10 in 10.0 mi South 15.0 mph 28.8 mph N/A   Clear
4:15 PM 78.8 °F 15.8 °F 9% 30.10 in 10.0 mi SW 17.3 mph 26.5 mph N/A   Clear
4:35 PM 78.8 °F 15.8 °F 9% 30.10 in 10.0 mi SSW 17.3 mph 27.6 mph N/A   Clear
4:55 PM 77.0 °F 15.8 °F 10% 30.10 in 10.0 mi SSW 20.7 mph 31.1 mph N/A   Clear
5:15 PM 77.0 °F 15.8 °F 10% 30.09 in 10.0 mi SSW 21.9 mph 29.9 mph N/A   Clear
5:35 PM 77.0 °F 15.8 °F 10% 30.09 in 10.0 mi SSW 15.0 mph 25.3 mph N/A   Clear
5:55 PM 77.0 °F 15.8 °F 10% 30.09 in 10.0 mi SW 19.6 mph 27.6 mph N/A   Clear
6:15 PM 75.2 °F 15.8 °F 11% 30.10 in 10.0 mi SSW 16.1 mph 24.2 mph N/A   Clear
6:35 PM 75.2 °F 15.8 °F 11% 30.10 in 10.0 mi SSW 15.0 mph 23.0 mph N/A   Clear
6:55 PM 73.4 °F 14.0 °F 10% 30.10 in 10.0 mi SW 12.7 mph 20.7 mph N/A   Clear
7:15 PM 73.4 °F 14.0 °F 10% 30.10 in 10.0 mi SW 13.8 mph 23.0 mph N/A   Clear
7:35 PM 71.6 °F 14.0 °F 11% 30.10 in 10.0 mi SW 12.7 mph 20.7 mph N/A   Clear
7:55 PM 69.8 °F 14.0 °F 12% 30.11 in 10.0 mi SW 12.7 mph 18.4 mph N/A   Clear
8:15 PM 68.0 °F 15.8 °F 13% 30.11 in 10.0 mi SW 8.1 mph - N/A   Clear
8:35 PM 68.0 °F 15.8 °F 13% 30.12 in 10.0 mi South 10.4 mph - N/A   Clear
8:55 PM 66.2 °F 15.8 °F 14% 30.12 in 10.0 mi South 6.9 mph - N/A   Clear
9:15 PM 64.4 °F 15.8 °F 15% 30.13 in 10.0 mi South 6.9 mph - N/A   Clear
9:35 PM 62.6 °F 15.8 °F 16% 30.13 in 10.0 mi South 8.1 mph - N/A   Clear
9:55 PM 62.6 °F 15.8 °F 16% 30.13 in 10.0 mi South 9.2 mph - N/A   Clear
10:15 PM 62.6 °F 17.6 °F 18% 30.13 in 10.0 mi SSW 6.9 mph - N/A   Clear
10:35 PM 64.4 °F 17.6 °F 16% 30.13 in 10.0 mi SSW 6.9 mph - N/A   Clear
10:55 PM 60.8 °F 17.6 °F 19% 30.13 in 10.0 mi South 6.9 mph - N/A   Clear
11:15 PM 55.4 °F 17.6 °F 23% 30.13 in 10.0 mi SSE 8.1 mph - N/A   Clear
11:35 PM 53.6 °F 17.6 °F 24% 30.13 in 10.0 mi SSE 6.9 mph - N/A   Clear
11:55 PM 55.4 °F 17.6 °F 23% 30.13 in 10.0 mi South 8.1 mph - N/A   Clear